Time;durP1;ratioP1;P1;durP2;ratioP2;P2;SDS_P1;SDS_P2;PMS_P1;PMS_P2;Temp;Humidity;BMP_temperature;BMP_pressure;BME280_temperature;BME280_humidity;BME280_pressure;Samples;Min_cycle;Max_cycle;Signal;HPM_P1;HPM_P2
2024/02/20 00:01:50;;;;;;;136.88;95.70;;;;;;;;;;5009039;28;20032;-51
2024/02/20 00:04:18;;;;;;;131.35;95.88;;;;;;;;;;5015136;28;20029;-48
2024/02/20 00:06:44;;;;;;;140.43;98.82;;;;;;;;;;5025875;28;20025;-49
2024/02/20 00:09:10;;;;;;;136.75;98.32;;;;;;;;;;5010286;28;20370;-50
2024/02/20 00:11:36;;;;;;;137.45;96.68;;;;;;;;;;5012217;28;20033;-51
2024/02/20 00:14:02;;;;;;;135.48;98.30;;;;;;;;;;5005985;28;20045;-50
2024/02/20 00:16:28;;;;;;;137.88;98.05;;;;;;;;;;5000856;28;20149;-50
2024/02/20 00:18:55;;;;;;;132.38;96.05;;;;;;;;;;5001905;28;20022;-49
2024/02/20 00:21:21;;;;;;;142.60;98.88;;;;;;;;;;5013667;28;20427;-49
2024/02/20 00:23:47;;;;;;;144.20;102.65;;;;;;;;;;5011184;28;20030;-49
2024/02/20 00:26:13;;;;;;;141.80;98.65;;;;;;;;;;5000512;28;20048;-49
2024/02/20 00:28:42;;;;;;;138.55;98.90;;;;;;;;;;5011328;28;20556;-52
2024/02/20 00:31:08;;;;;;;142.00;99.90;;;;;;;;;;5005613;28;20030;-52
2024/02/20 00:33:34;;;;;;;140.30;98.68;;;;;;;;;;5010895;28;20045;-51
2024/02/20 00:36:01;;;;;;;138.50;98.53;;;;;;;;;;5006298;28;20377;-51
2024/02/20 00:38:27;;;;;;;140.68;98.18;;;;;;;;;;5011086;28;20026;-49
2024/02/20 00:40:53;;;;;;;139.18;95.65;;;;;;;;;;5010597;28;20030;-48
2024/02/20 00:43:19;;;;;;;136.30;95.07;;;;;;;;;;5010487;28;20038;-48
2024/02/20 00:45:45;;;;;;;141.95;97.75;;;;;;;;;;5001726;28;20447;-49
2024/02/20 00:48:12;;;;;;;133.48;93.63;;;;;;;;;;5007010;28;20067;-52
2024/02/20 00:50:38;;;;;;;134.85;95.28;;;;;;;;;;5008597;28;20088;-51
2024/02/20 00:53:04;;;;;;;128.18;92.75;;;;;;;;;;5008764;28;20427;-53
2024/02/20 00:55:30;;;;;;;127.07;93.72;;;;;;;;;;5014242;28;20030;-51
2024/02/20 00:57:58;;;;;;;129.07;92.32;;;;;;;;;;5009830;28;20395;-49
2024/02/20 01:00:24;;;;;;;129.82;92.65;;;;;;;;;;4997560;28;20416;-49
2024/02/20 01:02:50;;;;;;;131.18;93.68;;;;;;;;;;4996488;28;20034;-48
2024/02/20 01:05:16;;;;;;;135.98;95.18;;;;;;;;;;5005184;28;20085;-49
2024/02/20 01:07:42;;;;;;;134.45;96.35;;;;;;;;;;5001673;28;20057;-50
2024/02/20 01:10:08;;;;;;;135.63;92.43;;;;;;;;;;5016958;28;20344;-49
2024/02/20 01:12:34;;;;;;;129.30;92.65;;;;;;;;;;5011976;28;20026;-48
2024/02/20 01:15:01;;;;;;;134.63;95.00;;;;;;;;;;4998370;28;20095;-52
2024/02/20 01:17:26;;;;;;;129.65;91.97;;;;;;;;;;5009739;28;20026;-53
2024/02/20 01:19:52;;;;;;;127.05;90.95;;;;;;;;;;5006384;28;20346;-50
2024/02/20 01:22:18;;;;;;;126.25;89.20;;;;;;;;;;5013101;28;20068;-49
2024/02/20 01:24:44;;;;;;;126.20;90.50;;;;;;;;;;5026550;28;20073;-49
2024/02/20 01:27:10;;;;;;;129.10;91.05;;;;;;;;;;5011711;28;20028;-50
2024/02/20 01:29:36;;;;;;;129.18;93.13;;;;;;;;;;5017956;28;20399;-52
2024/02/20 01:32:03;;;;;;;126.65;92.57;;;;;;;;;;5012241;28;20491;-50
2024/02/20 01:34:29;;;;;;;133.55;94.40;;;;;;;;;;5003140;28;20080;-52
2024/02/20 01:36:55;;;;;;;142.02;100.85;;;;;;;;;;5013458;28;20468;-52
2024/02/20 01:39:21;;;;;;;145.82;101.32;;;;;;;;;;5009290;28;20030;-52
2024/02/20 01:41:47;;;;;;;147.32;105.45;;;;;;;;;;5015188;28;20026;-50
2024/02/20 01:44:13;;;;;;;144.18;103.05;;;;;;;;;;5023180;28;20101;-51
2024/02/20 01:46:41;;;;;;;144.93;104.75;;;;;;;;;;5004844;28;20027;-49
2024/02/20 01:49:07;;;;;;;149.20;105.47;;;;;;;;;;5011027;28;20045;-49
2024/02/20 01:51:34;;;;;;;154.32;109.15;;;;;;;;;;5014275;28;20045;-52
2024/02/20 01:54:02;;;;;;;151.82;105.32;;;;;;;;;;5013050;28;20384;-49
2024/02/20 01:56:29;;;;;;;155.75;109.70;;;;;;;;;;5003982;28;20077;-50
2024/02/20 01:58:56;;;;;;;152.35;108.10;;;;;;;;;;5006368;28;20035;-49
2024/02/20 02:01:25;;;;;;;150.45;107.13;;;;;;;;;;4999693;28;20019;-51
2024/02/20 02:03:52;;;;;;;149.50;106.88;;;;;;;;;;5017479;28;20076;-53
2024/02/20 02:06:27;;;;;;;155.32;108.85;;;;;;;;;;5013676;28;20022;-50
2024/02/20 02:08:53;;;;;;;155.25;111.20;;;;;;;;;;5001149;28;20451;-52
2024/02/20 02:11:19;;;;;;;153.88;110.38;;;;;;;;;;5010790;28;20050;-52
2024/02/20 02:13:45;;;;;;;156.18;108.47;;;;;;;;;;5000380;28;20373;-53
2024/02/20 02:16:11;;;;;;;155.00;111.53;;;;;;;;;;5008267;28;20059;-53
2024/02/20 02:18:37;;;;;;;156.45;108.75;;;;;;;;;;4998103;28;20559;-52
2024/02/20 02:21:03;;;;;;;146.43;105.78;;;;;;;;;;5019823;28;20033;-50
2024/02/20 02:23:29;;;;;;;148.98;103.90;;;;;;;;;;5028478;28;20037;-50
2024/02/20 02:25:55;;;;;;;142.82;103.82;;;;;;;;;;5012711;28;20026;-53
2024/02/20 02:28:21;;;;;;;138.73;99.47;;;;;;;;;;5002153;28;20510;-56
2024/02/20 02:30:47;;;;;;;147.77;101.80;;;;;;;;;;5001858;28;20053;-54
2024/02/20 02:33:13;;;;;;;138.88;99.85;;;;;;;;;;5009250;28;20379;-54
2024/02/20 02:35:39;;;;;;;139.75;99.63;;;;;;;;;;5010429;28;20034;-52
2024/02/20 02:38:05;;;;;;;136.23;99.13;;;;;;;;;;5005423;28;20436;-52
2024/02/20 02:40:31;;;;;;;135.80;96.35;;;;;;;;;;5013560;28;20113;-53
2024/02/20 02:42:57;;;;;;;135.82;99.93;;;;;;;;;;5008804;28;20101;-51
2024/02/20 02:45:23;;;;;;;133.82;96.95;;;;;;;;;;5003623;28;20065;-55
2024/02/20 02:47:51;;;;;;;133.15;95.57;;;;;;;;;;5011395;28;20022;-55
2024/02/20 02:50:17;;;;;;;140.75;100.65;;;;;;;;;;5005324;28;20044;-51
2024/02/20 02:52:43;;;;;;;132.43;98.35;;;;;;;;;;5001607;28;20459;-54
2024/02/20 02:55:10;;;;;;;134.82;98.05;;;;;;;;;;5003177;28;20041;-55
2024/02/20 02:57:36;;;;;;;138.77;97.78;;;;;;;;;;5003851;28;20306;-52
2024/02/20 03:00:03;;;;;;;128.98;93.93;;;;;;;;;;5010977;28;20046;-52
2024/02/20 03:02:31;;;;;;;121.85;87.82;;;;;;;;;;5022980;28;20558;-50
2024/02/20 03:04:57;;;;;;;123.53;89.15;;;;;;;;;;5000219;28;20031;-52
2024/02/20 03:07:24;;;;;;;124.80;88.18;;;;;;;;;;5020630;28;20034;-55
2024/02/20 03:09:49;;;;;;;130.02;90.82;;;;;;;;;;5026266;28;20046;-54
2024/02/20 03:12:17;;;;;;;129.10;88.75;;;;;;;;;;5008981;28;20120;-54
2024/02/20 03:14:43;;;;;;;123.47;88.25;;;;;;;;;;5013135;28;20033;-53
2024/02/20 03:17:09;;;;;;;123.00;86.72;;;;;;;;;;5007179;28;20447;-56
2024/02/20 03:19:35;;;;;;;126.63;87.97;;;;;;;;;;5003045;28;20045;-55
2024/02/20 03:22:02;;;;;;;126.07;88.93;;;;;;;;;;5005896;28;20034;-51
2024/02/20 03:24:28;;;;;;;116.03;85.00;;;;;;;;;;5018610;28;20029;-53
2024/02/20 03:26:55;;;;;;;122.72;86.25;;;;;;;;;;5013513;28;20028;-55
2024/02/20 03:29:22;;;;;;;128.77;87.53;;;;;;;;;;5019022;28;20085;-52
2024/02/20 03:31:48;;;;;;;115.75;83.38;;;;;;;;;;5010017;28;20022;-54
2024/02/20 03:34:14;;;;;;;118.97;83.45;;;;;;;;;;5012827;28;20476;-51
2024/02/20 03:36:40;;;;;;;116.18;84.13;;;;;;;;;;5012846;28;20025;-52
2024/02/20 03:39:07;;;;;;;119.07;85.18;;;;;;;;;;5008774;28;20030;-51
2024/02/20 03:41:33;;;;;;;117.75;85.10;;;;;;;;;;5022150;28;20056;-54
2024/02/20 03:43:59;;;;;;;116.68;83.05;;;;;;;;;;5016790;28;20056;-51
2024/02/20 03:46:25;;;;;;;119.32;85.63;;;;;;;;;;5001116;28;20133;-54
2024/02/20 03:48:51;;;;;;;113.80;82.93;;;;;;;;;;5001444;28;20282;-54
2024/02/20 03:51:18;;;;;;;123.15;84.95;;;;;;;;;;5003011;28;20109;-51
2024/02/20 03:53:44;;;;;;;116.00;81.18;;;;;;;;;;5012448;28;20030;-54
2024/02/20 03:56:13;;;;;;;119.30;84.05;;;;;;;;;;5009137;28;20022;-56
2024/02/20 03:58:40;;;;;;;122.43;86.20;;;;;;;;;;5004751;28;20088;-52
2024/02/20 04:01:06;;;;;;;122.97;87.07;;;;;;;;;;5020960;28;20191;-55
2024/02/20 04:03:32;;;;;;;125.30;88.97;;;;;;;;;;5010966;28;20072;-53
2024/02/20 04:05:59;;;;;;;133.82;89.53;;;;;;;;;;5022790;28;20161;-50
2024/02/20 04:08:24;;;;;;;127.28;90.20;;;;;;;;;;5009120;28;20108;-54
2024/02/20 04:10:51;;;;;;;128.82;90.47;;;;;;;;;;4993985;28;20492;-55
2024/02/20 04:13:17;;;;;;;129.27;91.35;;;;;;;;;;5009799;28;20333;-53
2024/02/20 04:15:43;;;;;;;132.82;92.10;;;;;;;;;;5006748;28;20038;-56
2024/02/20 04:18:09;;;;;;;132.70;92.90;;;;;;;;;;5012637;28;20102;-55
2024/02/20 04:20:35;;;;;;;134.70;92.93;;;;;;;;;;5004575;28;20052;-55
2024/02/20 04:23:03;;;;;;;129.65;91.80;;;;;;;;;;4999369;28;20029;-55
2024/02/20 04:25:29;;;;;;;131.10;92.88;;;;;;;;;;5006522;28;20105;-53
2024/02/20 04:27:55;;;;;;;133.40;91.13;;;;;;;;;;5008711;28;20084;-54
2024/02/20 04:30:21;;;;;;;130.23;90.90;;;;;;;;;;5010005;28;20033;-52
2024/02/20 04:32:47;;;;;;;128.93;89.65;;;;;;;;;;5012130;28;20464;-55
2024/02/20 04:35:13;;;;;;;122.13;88.70;;;;;;;;;;5006640;28;20034;-55
2024/02/20 04:37:39;;;;;;;120.80;87.50;;;;;;;;;;5003645;28;20014;-55
2024/02/20 04:40:08;;;;;;;123.43;88.82;;;;;;;;;;5000517;28;20054;-56
2024/02/20 04:42:34;;;;;;;127.82;88.20;;;;;;;;;;5009985;28;20072;-52
2024/02/20 04:45:01;;;;;;;128.32;88.70;;;;;;;;;;5011625;28;20022;-52
2024/02/20 04:47:28;;;;;;;123.63;87.70;;;;;;;;;;5013903;28;20034;-51
2024/02/20 04:49:54;;;;;;;116.40;84.57;;;;;;;;;;4999640;28;20029;-55
2024/02/20 04:52:20;;;;;;;127.88;88.93;;;;;;;;;;5011832;28;20112;-54
2024/02/20 04:54:46;;;;;;;123.80;88.20;;;;;;;;;;5006540;28;20425;-55
2024/02/20 04:57:12;;;;;;;124.03;89.32;;;;;;;;;;5018963;28;20027;-51
2024/02/20 04:59:41;;;;;;;127.53;88.20;;;;;;;;;;5000361;28;20057;-54
2024/02/20 05:02:08;;;;;;;129.93;92.93;;;;;;;;;;5023594;28;20025;-55
2024/02/20 05:04:34;;;;;;;125.93;91.45;;;;;;;;;;5016367;28;20517;-51
2024/02/20 05:07:02;;;;;;;125.00;91.82;;;;;;;;;;5009285;28;20057;-56
2024/02/20 05:09:28;;;;;;;130.73;90.85;;;;;;;;;;5011094;28;20034;-56
2024/02/20 05:11:54;;;;;;;131.48;93.10;;;;;;;;;;5012877;28;20041;-56
2024/02/20 05:14:20;;;;;;;126.68;92.72;;;;;;;;;;5004294;28;20034;-55
2024/02/20 05:16:46;;;;;;;130.30;91.22;;;;;;;;;;5011791;28;20407;-53
2024/02/20 05:19:12;;;;;;;127.20;90.18;;;;;;;;;;5004332;28;20092;-55
2024/02/20 05:21:38;;;;;;;131.43;92.13;;;;;;;;;;5007807;28;20435;-56
2024/02/20 05:24:04;;;;;;;136.10;92.28;;;;;;;;;;5013534;28;20030;-55
2024/02/20 05:26:30;;;;;;;131.60;89.93;;;;;;;;;;5003913;28;20036;-53
2024/02/20 05:28:56;;;;;;;124.70;89.70;;;;;;;;;;5008656;28;20208;-54
2024/02/20 05:31:29;;;;;;;124.03;88.10;;;;;;;;;;5002406;28;20034;-55
2024/02/20 05:33:56;;;;;;;125.78;88.30;;;;;;;;;;5013492;28;20429;-54
2024/02/20 05:36:21;;;;;;;124.70;87.13;;;;;;;;;;5008845;28;20029;-54
2024/02/20 05:38:47;;;;;;;120.78;86.28;;;;;;;;;;5007839;28;20038;-54
2024/02/20 05:41:13;;;;;;;124.53;87.07;;;;;;;;;;5017218;28;20029;-53
2024/02/20 05:43:39;;;;;;;118.85;85.50;;;;;;;;;;5012943;28;20091;-51
2024/02/20 05:46:05;;;;;;;120.47;85.50;;;;;;;;;;5010973;28;20460;-54
2024/02/20 05:48:31;;;;;;;123.70;86.28;;;;;;;;;;5003818;28;20172;-53
2024/02/20 05:50:57;;;;;;;120.30;85.63;;;;;;;;;;5012926;28;20124;-56
2024/02/20 05:53:23;;;;;;;122.43;85.10;;;;;;;;;;5011295;28;20019;-54
2024/02/20 05:55:50;;;;;;;125.47;86.18;;;;;;;;;;5028977;28;20021;-52
2024/02/20 05:58:16;;;;;;;121.38;86.22;;;;;;;;;;5011044;28;20121;-54
2024/02/20 06:00:42;;;;;;;121.97;89.47;;;;;;;;;;5015284;28;20088;-54
2024/02/20 06:03:20;;;;;;;120.70;87.00;;;;;;;;;;5014706;28;20442;-52
2024/02/20 06:05:46;;;;;;;123.60;88.35;;;;;;;;;;5012266;28;20547;-52
2024/02/20 06:08:12;;;;;;;124.70;87.10;;;;;;;;;;5005946;28;20393;-56
2024/02/20 06:10:38;;;;;;;126.78;86.80;;;;;;;;;;5011369;28;20104;-56
2024/02/20 06:13:04;;;;;;;122.57;87.40;;;;;;;;;;5006695;28;20089;-52
2024/02/20 06:15:30;;;;;;;121.20;86.90;;;;;;;;;;5010897;28;21775;-54
2024/02/20 06:17:56;;;;;;;120.60;85.50;;;;;;;;;;5023140;28;20105;-54
2024/02/20 06:20:22;;;;;;;122.43;84.80;;;;;;;;;;5009797;28;20464;-56
2024/02/20 06:22:48;;;;;;;123.30;87.20;;;;;;;;;;5008698;28;20072;-53
2024/02/20 06:25:15;;;;;;;128.20;86.85;;;;;;;;;;5000542;28;20052;-52
2024/02/20 06:27:44;;;;;;;122.63;86.18;;;;;;;;;;5012482;28;20409;-53
2024/02/20 06:30:12;;;;;;;126.05;89.18;;;;;;;;;;5011924;28;20061;-54
2024/02/20 06:32:39;;;;;;;125.50;87.95;;;;;;;;;;5004754;28;20050;-53
2024/02/20 06:35:05;;;;;;;127.30;87.88;;;;;;;;;;5009479;28;20026;-55
2024/02/20 06:37:31;;;;;;;126.18;87.93;;;;;;;;;;5009799;28;20022;-54
2024/02/20 06:39:57;;;;;;;128.63;89.22;;;;;;;;;;5014044;28;20029;-56
2024/02/20 06:42:23;;;;;;;123.63;88.75;;;;;;;;;;5026454;28;20014;-55
2024/02/20 06:44:49;;;;;;;122.20;85.65;;;;;;;;;;5007962;28;20030;-53
2024/02/20 06:47:15;;;;;;;120.25;85.60;;;;;;;;;;5012544;28;20032;-54
2024/02/20 06:49:41;;;;;;;123.60;86.60;;;;;;;;;;5012997;28;20038;-51
2024/02/20 06:52:07;;;;;;;125.78;88.60;;;;;;;;;;5003549;28;20046;-54
2024/02/20 06:54:33;;;;;;;128.27;88.20;;;;;;;;;;5005997;28;20470;-54
2024/02/20 06:56:59;;;;;;;134.23;90.32;;;;;;;;;;5024664;28;20113;-53
2024/02/20 06:59:25;;;;;;;135.80;93.13;;;;;;;;;;5021962;28;20045;-54
2024/02/20 07:01:51;;;;;;;130.07;90.10;;;;;;;;;;5002164;28;20899;-54
2024/02/20 07:04:17;;;;;;;132.27;93.03;;;;;;;;;;5009329;28;20034;-51
2024/02/20 07:06:43;;;;;;;129.07;91.40;;;;;;;;;;5012748;28;20056;-54
2024/02/20 07:09:10;;;;;;;129.68;89.32;;;;;;;;;;5001998;28;20038;-56
2024/02/20 07:11:36;;;;;;;137.07;93.65;;;;;;;;;;5012280;28;20029;-51
2024/02/20 07:14:02;;;;;;;133.10;91.63;;;;;;;;;;5012575;28;20035;-53
2024/02/20 07:16:28;;;;;;;132.93;93.35;;;;;;;;;;5006076;28;20498;-54
2024/02/20 07:18:54;;;;;;;136.82;90.30;;;;;;;;;;5010859;28;20029;-55
2024/02/20 07:21:20;;;;;;;131.57;91.45;;;;;;;;;;5005815;28;20052;-56
2024/02/20 07:23:46;;;;;;;133.02;93.20;;;;;;;;;;5002415;28;20039;-56
2024/02/20 07:26:12;;;;;;;140.35;95.70;;;;;;;;;;5007856;28;20041;-56
2024/02/20 07:28:38;;;;;;;137.63;94.57;;;;;;;;;;5009258;28;20042;-57
2024/02/20 07:31:04;;;;;;;133.40;91.88;;;;;;;;;;5012027;28;20033;-53
2024/02/20 07:33:30;;;;;;;135.75;95.28;;;;;;;;;;5019746;28;20034;-55
2024/02/20 07:35:56;;;;;;;139.43;97.47;;;;;;;;;;5011129;28;20073;-54
2024/02/20 07:38:22;;;;;;;141.88;95.60;;;;;;;;;;5007741;28;20468;-56
2024/02/20 07:40:48;;;;;;;134.70;94.97;;;;;;;;;;4998546;28;20201;-67
2024/02/20 07:43:14;;;;;;;133.48;95.30;;;;;;;;;;5008497;28;20017;-65
2024/02/20 07:45:41;;;;;;;140.13;94.95;;;;;;;;;;5004209;28;20039;-64
2024/02/20 07:48:11;;;;;;;136.15;96.30;;;;;;;;;;5004792;28;20044;-67
2024/02/20 07:50:38;;;;;;;139.70;98.82;;;;;;;;;;5001194;28;20038;-65
2024/02/20 07:53:04;;;;;;;133.50;93.25;;;;;;;;;;5020999;28;20057;-64
2024/02/20 07:55:30;;;;;;;140.80;95.95;;;;;;;;;;5007794;28;20037;-66
2024/02/20 07:57:56;;;;;;;132.68;94.22;;;;;;;;;;5008616;28;20112;-64
2024/02/20 08:00:22;;;;;;;137.15;95.57;;;;;;;;;;5006079;28;20046;-63
2024/02/20 08:02:48;;;;;;;144.90;96.72;;;;;;;;;;5009374;28;20064;-63
2024/02/20 08:05:14;;;;;;;141.05;98.75;;;;;;;;;;5003953;28;20026;-66
2024/02/20 08:07:40;;;;;;;144.10;100.03;;;;;;;;;;5006541;28;20639;-65
2024/02/20 08:10:06;;;;;;;139.80;101.07;;;;;;;;;;5013865;28;20353;-72
2024/02/20 08:12:32;;;;;;;134.23;96.80;;;;;;;;;;5004519;28;20172;-69
2024/02/20 08:14:59;;;;;;;146.90;100.20;;;;;;;;;;5018643;28;20528;-68
2024/02/20 08:17:25;;;;;;;142.32;97.03;;;;;;;;;;5007075;28;20048;-66
2024/02/20 08:19:51;;;;;;;137.73;96.35;;;;;;;;;;5007785;28;20025;-71
2024/02/20 08:22:17;;;;;;;137.70;97.53;;;;;;;;;;5010896;28;20037;-69
2024/02/20 08:24:44;;;;;;;141.57;95.85;;;;;;;;;;5009087;28;20102;-62
2024/02/20 08:27:11;;;;;;;134.65;97.18;;;;;;;;;;5004364;28;20022;-61
2024/02/20 08:29:37;;;;;;;135.55;94.13;;;;;;;;;;5011934;28;20038;-62
2024/02/20 08:32:03;;;;;;;139.02;97.15;;;;;;;;;;5004737;28;20466;-63
2024/02/20 08:34:29;;;;;;;137.95;98.43;;;;;;;;;;5011926;28;20121;-65
2024/02/20 08:36:55;;;;;;;143.63;98.35;;;;;;;;;;5005075;28;20529;-62
2024/02/20 08:39:22;;;;;;;137.57;98.07;;;;;;;;;;5005572;28;20022;-60
2024/02/20 08:41:48;;;;;;;131.70;94.65;;;;;;;;;;5004869;28;20109;-64
2024/02/20 08:44:15;;;;;;;130.00;89.13;;;;;;;;;;5002389;28;20420;-59
2024/02/20 08:46:41;;;;;;;129.30;91.85;;;;;;;;;;5005242;28;20038;-50
2024/02/20 08:49:07;;;;;;;126.95;91.82;;;;;;;;;;5014122;28;20041;-65
2024/02/20 08:51:33;;;;;;;128.45;91.63;;;;;;;;;;5004139;28;20093;-66
2024/02/20 08:53:59;;;;;;;123.75;84.85;;;;;;;;;;4999009;28;20030;-65
2024/02/20 08:56:25;;;;;;;124.28;86.53;;;;;;;;;;5003037;28;20484;-65
2024/02/20 08:58:51;;;;;;;117.90;84.82;;;;;;;;;;5002248;28;20030;-63
2024/02/20 09:01:18;;;;;;;123.15;84.80;;;;;;;;;;5020146;28;20480;-65
2024/02/20 09:03:44;;;;;;;130.05;95.97;;;;;;;;;;4999639;28;20026;-60
2024/02/20 09:06:10;;;;;;;144.18;98.78;;;;;;;;;;5012273;28;20084;-48
2024/02/20 09:08:36;;;;;;;137.32;95.80;;;;;;;;;;5011151;28;20034;-60
2024/02/20 09:11:06;;;;;;;133.98;96.20;;;;;;;;;;5007431;28;20147;-62
2024/02/20 09:13:34;;;;;;;136.32;95.70;;;;;;;;;;5015674;28;20034;-63
2024/02/20 09:16:00;;;;;;;140.15;98.55;;;;;;;;;;5002207;28;20030;-64
2024/02/20 09:18:27;;;;;;;130.38;93.20;;;;;;;;;;5007082;28;20043;-63
2024/02/20 09:20:54;;;;;;;127.30;92.35;;;;;;;;;;5001393;28;20050;-63
2024/02/20 09:23:20;;;;;;;133.05;95.47;;;;;;;;;;5006409;28;20393;-62
2024/02/20 09:25:46;;;;;;;139.00;97.25;;;;;;;;;;5003829;28;20041;-72
2024/02/20 09:28:12;;;;;;;139.25;98.93;;;;;;;;;;5010123;28;20387;-65
2024/02/20 09:30:38;;;;;;;144.20;98.57;;;;;;;;;;4999348;28;20044;-68
2024/02/20 09:33:04;;;;;;;143.98;100.75;;;;;;;;;;5006684;28;20022;-75
2024/02/20 09:35:30;;;;;;;137.32;96.95;;;;;;;;;;5017787;28;20085;-66
2024/02/20 09:37:56;;;;;;;136.73;98.07;;;;;;;;;;5005055;28;20111;-63
2024/02/20 09:40:22;;;;;;;129.00;93.70;;;;;;;;;;5008997;28;20040;-67
2024/02/20 09:42:52;;;;;;;124.40;90.30;;;;;;;;;;5013722;28;20399;-63
2024/02/20 09:45:19;;;;;;;130.52;90.60;;;;;;;;;;5006828;28;20080;-64
2024/02/20 09:47:48;;;;;;;131.60;93.25;;;;;;;;;;5011957;28;20132;-66
2024/02/20 09:50:17;;;;;;;130.00;94.85;;;;;;;;;;5011320;28;20038;-62
2024/02/20 09:52:47;;;;;;;124.35;89.00;;;;;;;;;;5001607;28;20042;-61
2024/02/20 09:55:14;;;;;;;125.70;91.25;;;;;;;;;;5002967;28;20099;-67
2024/02/20 09:57:41;;;;;;;125.00;88.70;;;;;;;;;;5001390;28;20424;-62
2024/02/20 10:00:07;;;;;;;125.13;91.22;;;;;;;;;;5010609;28;20120;-65
2024/02/20 10:02:33;;;;;;;117.47;87.82;;;;;;;;;;5006807;28;20022;-65
2024/02/20 10:05:01;;;;;;;124.28;89.07;;;;;;;;;;5022304;28;20112;-61
2024/02/20 10:07:27;;;;;;;125.45;91.47;;;;;;;;;;5003102;28;20034;-63
2024/02/20 10:09:53;;;;;;;134.43;94.53;;;;;;;;;;5000575;28;20507;-63
2024/02/20 10:12:20;;;;;;;135.65;99.90;;;;;;;;;;5004934;28;20023;-67
2024/02/20 10:14:46;;;;;;;132.43;99.97;;;;;;;;;;5019601;28;20365;-60
2024/02/20 10:17:14;;;;;;;136.35;100.57;;;;;;;;;;5009639;28;20113;-63
2024/02/20 10:19:40;;;;;;;138.43;100.05;;;;;;;;;;5007184;28;20034;-61
2024/02/20 10:22:06;;;;;;;135.43;98.22;;;;;;;;;;5006980;28;20083;-68
2024/02/20 10:24:32;;;;;;;137.98;100.32;;;;;;;;;;5007258;28;20025;-64
2024/02/20 10:26:58;;;;;;;134.18;100.38;;;;;;;;;;5005507;28;20468;-66
2024/02/20 10:29:27;;;;;;;130.85;97.45;;;;;;;;;;5001366;28;20041;-65
2024/02/20 10:31:53;;;;;;;140.95;102.30;;;;;;;;;;5009345;28;20026;-61
2024/02/20 10:34:20;;;;;;;132.70;97.72;;;;;;;;;;5006755;28;20031;-59
2024/02/20 10:36:46;;;;;;;138.05;98.07;;;;;;;;;;5011953;28;20093;-66
2024/02/20 10:39:12;;;;;;;130.05;97.38;;;;;;;;;;5010208;28;20037;-66
2024/02/20 10:41:39;;;;;;;134.90;99.05;;;;;;;;;;5004676;28;20040;-69
2024/02/20 10:44:05;;;;;;;135.50;99.75;;;;;;;;;;5008416;28;20033;-64
2024/02/20 10:46:38;;;;;;;139.85;100.85;;;;;;;;;;4996526;28;20424;-66
2024/02/20 10:49:11;;;;;;;138.05;101.72;;;;;;;;;;5005927;28;20048;-70
2024/02/20 10:51:41;;;;;;;137.10;98.93;;;;;;;;;;5008494;28;20045;-60
2024/02/20 10:54:08;;;;;;;135.10;96.93;;;;;;;;;;5007812;28;20052;-59
2024/02/20 10:56:34;;;;;;;135.35;97.45;;;;;;;;;;5010946;28;20032;-60
2024/02/20 10:59:00;;;;;;;134.48;98.43;;;;;;;;;;5000211;28;20066;-66
2024/02/20 11:01:29;;;;;;;137.43;97.70;;;;;;;;;;5000730;28;20116;-73
2024/02/20 11:03:55;;;;;;;132.77;95.20;;;;;;;;;;5008396;28;20040;-70
2024/02/20 11:06:22;;;;;;;131.15;93.53;;;;;;;;;;5010893;28;20021;-66
2024/02/20 11:08:48;;;;;;;129.95;94.22;;;;;;;;;;5006189;28;20117;-67
2024/02/20 11:11:14;;;;;;;131.20;93.97;;;;;;;;;;4993916;28;20085;-74
2024/02/20 11:13:44;;;;;;;128.48;91.03;;;;;;;;;;5002472;28;20132;-75
2024/02/20 11:16:11;;;;;;;132.02;94.10;;;;;;;;;;5008337;28;20023;-76
2024/02/20 11:18:37;;;;;;;123.65;92.53;;;;;;;;;;5000276;28;20038;-64
2024/02/20 11:21:07;;;;;;;122.05;88.25;;;;;;;;;;5001399;28;20048;-64
2024/02/20 11:23:35;;;;;;;127.50;88.13;;;;;;;;;;5016030;28;20026;-66
2024/02/20 11:26:08;;;;;;;121.32;89.05;;;;;;;;;;4997952;28;20369;-60
2024/02/20 11:28:34;;;;;;;121.50;87.57;;;;;;;;;;5008070;28;20049;-64
2024/02/20 11:31:02;;;;;;;116.38;84.40;;;;;;;;;;5003751;28;20391;-70
2024/02/20 11:33:29;;;;;;;111.15;81.03;;;;;;;;;;5004629;28;20093;-70
2024/02/20 11:35:55;;;;;;;114.28;80.53;;;;;;;;;;5016967;28;20029;-62
2024/02/20 11:38:21;;;;;;;110.25;79.15;;;;;;;;;;5009941;28;20148;-62
2024/02/20 11:40:47;;;;;;;106.50;77.63;;;;;;;;;;5013980;28;20030;-60
2024/02/20 11:43:17;;;;;;;110.45;78.75;;;;;;;;;;5026786;28;20499;-64
2024/02/20 11:45:43;;;;;;;103.28;74.32;;;;;;;;;;5005731;28;20465;-59
2024/02/20 11:48:10;;;;;;;103.15;72.53;;;;;;;;;;5000034;28;20029;-59
2024/02/20 11:50:37;;;;;;;106.28;77.43;;;;;;;;;;5012928;28;20045;-61
2024/02/20 11:53:04;;;;;;;109.80;77.47;;;;;;;;;;5011679;28;20030;-59
2024/02/20 11:55:33;;;;;;;107.32;75.95;;;;;;;;;;5011528;28;20037;-59
2024/02/20 11:58:00;;;;;;;101.85;72.68;;;;;;;;;;5012296;28;20107;-64
2024/02/20 12:00:27;;;;;;;103.55;74.45;;;;;;;;;;5005008;28;20097;-66
2024/02/20 12:02:55;;;;;;;105.95;77.00;;;;;;;;;;5003174;28;20018;-62
2024/02/20 12:05:24;;;;;;;104.88;77.68;;;;;;;;;;5011506;28;20124;-62
2024/02/20 12:07:51;;;;;;;97.50;72.15;;;;;;;;;;4999443;28;20046;-62
2024/02/20 12:10:18;;;;;;;101.88;76.97;;;;;;;;;;5004971;28;20045;-59
2024/02/20 12:12:44;;;;;;;105.38;75.10;;;;;;;;;;5014819;28;20084;-61
2024/02/20 12:15:13;;;;;;;104.45;76.53;;;;;;;;;;5005482;28;20091;-60
2024/02/20 12:17:40;;;;;;;98.88;73.68;;;;;;;;;;4996492;28;20026;-63
2024/02/20 12:20:10;;;;;;;93.60;67.07;;;;;;;;;;4997580;28;20392;-58
2024/02/20 12:22:37;;;;;;;86.68;64.35;;;;;;;;;;5002708;28;20096;-73
2024/02/20 12:25:07;;;;;;;89.43;68.38;;;;;;;;;;5002395;28;20054;-74
2024/02/20 12:27:34;;;;;;;91.22;67.80;;;;;;;;;;5000574;28;20060;-54
2024/02/20 12:30:00;;;;;;;89.10;66.50;;;;;;;;;;5010200;28;20117;-65
2024/02/20 12:32:26;;;;;;;84.38;62.35;;;;;;;;;;5001940;28;20026;-56
2024/02/20 12:34:53;;;;;;;84.53;62.53;;;;;;;;;;5009351;28;20425;-70
2024/02/20 12:37:19;;;;;;;85.90;66.30;;;;;;;;;;5008032;28;20021;-66
2024/02/20 12:39:45;;;;;;;90.85;67.28;;;;;;;;;;5003652;28;20041;-64
2024/02/20 12:42:11;;;;;;;90.28;67.18;;;;;;;;;;5004298;28;20022;-67
2024/02/20 12:44:38;;;;;;;87.35;66.93;;;;;;;;;;5001652;28;20395;-66
2024/02/20 12:47:04;;;;;;;88.00;64.25;;;;;;;;;;4999676;28;20018;-63
2024/02/20 12:49:30;;;;;;;95.40;71.88;;;;;;;;;;5006632;28;20100;-62
2024/02/20 12:51:56;;;;;;;96.80;71.68;;;;;;;;;;5008076;28;20022;-62
2024/02/20 12:54:23;;;;;;;101.70;77.22;;;;;;;;;;5011791;28;20022;-62
2024/02/20 12:56:50;;;;;;;93.57;70.50;;;;;;;;;;4997898;28;20506;-61
2024/02/20 12:59:20;;;;;;;97.68;72.07;;;;;;;;;;5008343;28;20145;-62
2024/02/20 13:01:46;;;;;;;94.78;68.80;;;;;;;;;;5007830;28;20379;-62
2024/02/20 13:04:12;;;;;;;94.55;70.70;;;;;;;;;;5013825;28;20057;-62
2024/02/20 13:06:39;;;;;;;92.07;66.40;;;;;;;;;;4997263;28;20062;-62
2024/02/20 13:09:05;;;;;;;89.93;65.32;;;;;;;;;;5008099;28;20025;-62
2024/02/20 13:11:31;;;;;;;87.47;66.65;;;;;;;;;;5011624;28;20101;-62
2024/02/20 13:13:57;;;;;;;85.47;64.35;;;;;;;;;;4999909;28;20038;-62
2024/02/20 13:16:23;;;;;;;89.18;64.28;;;;;;;;;;4996851;28;20087;-62
2024/02/20 13:18:49;;;;;;;88.18;65.10;;;;;;;;;;5007850;28;20129;-69
2024/02/20 13:21:16;;;;;;;88.13;64.95;;;;;;;;;;5008040;28;20112;-68
2024/02/20 13:23:43;;;;;;;86.97;66.03;;;;;;;;;;5011445;28;20034;-62
2024/02/20 13:26:09;;;;;;;85.07;64.05;;;;;;;;;;5015015;28;20743;-65
2024/02/20 13:28:35;;;;;;;81.50;59.92;;;;;;;;;;5007785;28;20030;-61
2024/02/20 13:31:01;;;;;;;80.07;58.92;;;;;;;;;;5004776;28;20040;-69
2024/02/20 13:33:27;;;;;;;78.00;60.15;;;;;;;;;;5002712;28;20069;-66
2024/02/20 13:35:53;;;;;;;76.10;57.65;;;;;;;;;;5005511;28;20034;-54
2024/02/20 13:38:20;;;;;;;78.53;58.63;;;;;;;;;;4996753;28;20464;-56
2024/02/20 13:40:47;;;;;;;79.35;57.83;;;;;;;;;;5009275;28;20434;-61
2024/02/20 13:43:13;;;;;;;77.05;55.47;;;;;;;;;;5007041;28;20026;-60
2024/02/20 13:45:53;;;;;;;73.78;55.63;;;;;;;;;;4997474;28;20032;-57
2024/02/20 13:48:19;;;;;;;72.63;54.08;;;;;;;;;;5010587;28;20041;-61
2024/02/20 13:50:45;;;;;;;71.55;55.40;;;;;;;;;;5006726;28;20124;-63
2024/02/20 13:53:15;;;;;;;73.22;55.47;;;;;;;;;;5005578;28;20105;-64
2024/02/20 13:55:41;;;;;;;74.03;54.88;;;;;;;;;;5004369;28;20034;-66
2024/02/20 13:58:08;;;;;;;71.68;55.35;;;;;;;;;;5004563;28;20030;-62
2024/02/20 14:00:34;;;;;;;74.32;55.65;;;;;;;;;;5005081;28;20066;-64